sensor_id;sensor_type;location;lat;lon;timestamp;temperature;humidity
5930;DHT22;2990;48.746;9.236;2022-11-20T10:22:46;6.10;99.90
5930;DHT22;2990;48.746;9.236;2022-11-20T10:25:19;6.10;99.90
5930;DHT22;2990;48.746;9.236;2022-11-20T10:30:16;6.10;1.00
5930;DHT22;2990;48.746;9.236;2022-11-20T10:32:46;6.10;1.00
5930;DHT22;2990;48.746;9.236;2022-11-20T10:35:26;6.10;1.00
5930;DHT22;2990;48.746;9.236;2022-11-20T10:37:59;6.00;1.00
5930;DHT22;2990;48.746;9.236;2022-11-20T10:42:57;5.80;1.00
5930;DHT22;2990;48.746;9.236;2022-11-20T10:47:54;5.70;77.10
5930;DHT22;2990;48.746;9.236;2022-11-20T10:50:22;5.60;99.90
5930;DHT22;2990;48.746;9.236;2022-11-20T10:53:08;5.60;99.90
5930;DHT22;2990;48.746;9.236;2022-11-20T10:55:57;5.50;99.90
5930;DHT22;2990;48.746;9.236;2022-11-20T11:01:04;5.50;99.90
5930;DHT22;2990;48.746;9.236;2022-11-20T11:03:31;5.50;99.90
5930;DHT22;2990;48.746;9.236;2022-11-20T11:06:10;5.50;99.90
5930;DHT22;2990;48.746;9.236;2022-11-20T11:08:40;5.50;99.90
5930;DHT22;2990;48.746;9.236;2022-11-20T11:11:24;5.50;99.90
5930;DHT22;2990;48.746;9.236;2022-11-20T11:13:51;5.60;99.90
5930;DHT22;2990;48.746;9.236;2022-11-20T11:16:25;5.60;99.90
5930;DHT22;2990;48.746;9.236;2022-11-20T11:18:51;5.60;99.90
5930;DHT22;2990;48.746;9.236;2022-11-20T11:21:28;5.60;99.90
5930;DHT22;2990;48.746;9.236;2022-11-20T11:24:00;5.60;99.90
5930;DHT22;2990;48.746;9.236;2022-11-20T11:26:26;5.60;99.90
5930;DHT22;2990;48.746;9.236;2022-11-20T11:29:00;5.70;99.90
5930;DHT22;2990;48.746;9.236;2022-11-20T11:31:28;5.80;99.90
5930;DHT22;2990;48.746;9.236;2022-11-20T11:34:14;5.90;99.90
5930;DHT22;2990;48.746;9.236;2022-11-20T11:36:41;5.90;99.90
5930;DHT22;2990;48.746;9.236;2022-11-20T11:39:18;6.00;99.90
5930;DHT22;2990;48.746;9.236;2022-11-20T11:41:45;6.10;99.90
5930;DHT22;2990;48.746;9.236;2022-11-20T11:46:59;6.60;99.90
5930;DHT22;2990;48.746;9.236;2022-11-20T11:49:24;6.80;99.90
5930;DHT22;2990;48.746;9.236;2022-11-20T11:52:08;7.00;99.90
5930;DHT22;2990;48.746;9.236;2022-11-20T11:54:41;7.30;85.40
5930;DHT22;2990;48.746;9.236;2022-11-20T12:00:08;7.50;1.00
5930;DHT22;2990;48.746;9.236;2022-11-20T12:03:04;7.70;1.00
5930;DHT22;2990;48.746;9.236;2022-11-20T12:05:41;7.80;1.00
5930;DHT22;2990;48.746;9.236;2022-11-20T12:08:25;7.80;99.90
5930;DHT22;2990;48.746;9.236;2022-11-20T12:13:42;7.90;1.60
5930;DHT22;2990;48.746;9.236;2022-11-20T12:16:13;8.00;1.00
5930;DHT22;2990;48.746;9.236;2022-11-20T12:18:40;8.10;99.90
5930;DHT22;2990;48.746;9.236;2022-11-20T12:30:02;8.30;1.00
5930;DHT22;2990;48.746;9.236;2022-11-20T12:38:45;7.80;99.90
5930;DHT22;2990;48.746;9.236;2022-11-20T12:47:46;7.30;1.00
5930;DHT22;2990;48.746;9.236;2022-11-20T12:56:21;7.10;99.90
5930;DHT22;2990;48.746;9.236;2022-11-20T12:58:59;7.40;99.90
5930;DHT22;2990;48.746;9.236;2022-11-20T13:06:46;7.90;99.90
5930;DHT22;2990;48.746;9.236;2022-11-20T13:09:15;8.00;1.00
5930;DHT22;2990;48.746;9.236;2022-11-20T13:11:56;8.00;1.00
5930;DHT22;2990;48.746;9.236;2022-11-20T13:17:57;7.70;1.00
5930;DHT22;2990;48.746;9.236;2022-11-20T13:20:24;7.50;1.00
5930;DHT22;2990;48.746;9.236;2022-11-20T13:22:55;7.40;1.00
5930;DHT22;2990;48.746;9.236;2022-11-20T13:25:37;7.30;1.00
5930;DHT22;2990;48.746;9.236;2022-11-20T13:30:51;7.40;1.00
5930;DHT22;2990;48.746;9.236;2022-11-20T13:33:37;7.50;1.00
5930;DHT22;2990;48.746;9.236;2022-11-20T13:36:06;7.40;1.00
5930;DHT22;2990;48.746;9.236;2022-11-20T13:38:47;7.40;1.00
5930;DHT22;2990;48.746;9.236;2022-11-20T13:41:24;7.30;1.00
5930;DHT22;2990;48.746;9.236;2022-11-20T13:43:56;7.30;1.00
5930;DHT22;2990;48.746;9.236;2022-11-20T13:46:23;7.30;1.00
5930;DHT22;2990;48.746;9.236;2022-11-20T13:48:51;7.30;1.00
5930;DHT22;2990;48.746;9.236;2022-11-20T13:51:34;7.30;1.00
5930;DHT22;2990;48.746;9.236;2022-11-20T14:02:20;7.60;1.00
5930;DHT22;2990;48.746;9.236;2022-11-20T14:04:49;7.60;1.00
5930;DHT22;2990;48.746;9.236;2022-11-20T14:07:16;7.60;1.00
5930;DHT22;2990;48.746;9.236;2022-11-20T14:09:54;7.50;1.00
5930;DHT22;2990;48.746;9.236;2022-11-20T14:12:31;7.50;1.00
5930;DHT22;2990;48.746;9.236;2022-11-20T14:14:57;7.50;1.00
5930;DHT22;2990;48.746;9.236;2022-11-20T14:19:58;7.40;1.00
5930;DHT22;2990;48.746;9.236;2022-11-20T14:22:26;7.30;1.00
5930;DHT22;2990;48.746;9.236;2022-11-20T14:27:41;7.00;1.00
5930;DHT22;2990;48.746;9.236;2022-11-20T14:30:43;7.00;1.00
5930;DHT22;2990;48.746;9.236;2022-11-20T14:33:10;6.70;1.00
5930;DHT22;2990;48.746;9.236;2022-11-20T14:35:44;6.70;99.90
5930;DHT22;2990;48.746;9.236;2022-11-20T14:38:13;6.60;99.90
5930;DHT22;2990;48.746;9.236;2022-11-20T14:40:39;6.60;99.90
5930;DHT22;2990;48.746;9.236;2022-11-20T14:43:25;6.50;99.90
5930;DHT22;2990;48.746;9.236;2022-11-20T14:46:01;6.50;99.90
5930;DHT22;2990;48.746;9.236;2022-11-20T14:48:31;6.50;1.00
5930;DHT22;2990;48.746;9.236;2022-11-20T14:50:57;6.40;1.00
5930;DHT22;2990;48.746;9.236;2022-11-20T14:53:24;6.40;99.90
5930;DHT22;2990;48.746;9.236;2022-11-20T14:55:59;6.30;1.00
5930;DHT22;2990;48.746;9.236;2022-11-20T14:58:32;6.20;1.00
5930;DHT22;2990;48.746;9.236;2022-11-20T15:01:07;6.30;1.00
5930;DHT22;2990;48.746;9.236;2022-11-20T15:03:43;6.20;1.00
5930;DHT22;2990;48.746;9.236;2022-11-20T15:06:11;6.10;23.80
5930;DHT22;2990;48.746;9.236;2022-11-20T15:08:50;6.20;99.90
5930;DHT22;2990;48.746;9.236;2022-11-20T15:11:18;6.20;1.00
5930;DHT22;2990;48.746;9.236;2022-11-20T15:13:45;6.20;99.90
5930;DHT22;2990;48.746;9.236;2022-11-20T15:16:18;6.10;14.30
5930;DHT22;2990;48.746;9.236;2022-11-20T15:18:47;6.10;1.00
5930;DHT22;2990;48.746;9.236;2022-11-20T15:21:16;6.00;99.90
5930;DHT22;2990;48.746;9.236;2022-11-20T15:23:42;6.00;92.90
5930;DHT22;2990;48.746;9.236;2022-11-20T15:26:12;6.00;99.90
5930;DHT22;2990;48.746;9.236;2022-11-20T15:28:39;5.90;99.90
5930;DHT22;2990;48.746;9.236;2022-11-20T15:31:06;5.80;99.90
5930;DHT22;2990;48.746;9.236;2022-11-20T15:33:48;5.80;1.00
5930;DHT22;2990;48.746;9.236;2022-11-20T15:36:14;5.80;1.00
5930;DHT22;2990;48.746;9.236;2022-11-20T15:38:42;5.80;99.90
5930;DHT22;2990;48.746;9.236;2022-11-20T15:41:08;5.70;1.00
5930;DHT22;2990;48.746;9.236;2022-11-20T15:43:34;5.60;1.00
5930;DHT22;2990;48.746;9.236;2022-11-20T15:46:26;5.60;99.90
5930;DHT22;2990;48.746;9.236;2022-11-20T15:48:55;5.50;1.00
5930;DHT22;2990;48.746;9.236;2022-11-20T15:51:29;5.50;1.00
5930;DHT22;2990;48.746;9.236;2022-11-20T15:53:55;5.50;1.00
5930;DHT22;2990;48.746;9.236;2022-11-20T15:56:21;5.40;1.00
5930;DHT22;2990;48.746;9.236;2022-11-20T15:58:47;5.40;99.90
5930;DHT22;2990;48.746;9.236;2022-11-20T16:01:18;5.40;1.00
5930;DHT22;2990;48.746;9.236;2022-11-20T16:03:45;5.40;1.00
5930;DHT22;2990;48.746;9.236;2022-11-20T16:06:10;5.40;1.00
5930;DHT22;2990;48.746;9.236;2022-11-20T16:08:36;5.30;1.00
5930;DHT22;2990;48.746;9.236;2022-11-20T16:11:02;5.30;1.00
5930;DHT22;2990;48.746;9.236;2022-11-20T16:13:30;5.30;99.90
5930;DHT22;2990;48.746;9.236;2022-11-20T16:16:21;5.30;99.90
5930;DHT22;2990;48.746;9.236;2022-11-20T16:18:48;5.20;99.90
5930;DHT22;2990;48.746;9.236;2022-11-20T16:21:13;5.30;99.90
5930;DHT22;2990;48.746;9.236;2022-11-20T16:23:39;5.30;99.90
5930;DHT22;2990;48.746;9.236;2022-11-20T16:26:17;5.20;99.90
5930;DHT22;2990;48.746;9.236;2022-11-20T16:28:44;5.20;99.90
5930;DHT22;2990;48.746;9.236;2022-11-20T16:31:11;5.30;1.00
5930;DHT22;2990;48.746;9.236;2022-11-20T16:33:37;5.40;1.00
5930;DHT22;2990;48.746;9.236;2022-11-20T16:36:10;5.40;99.90
5930;DHT22;2990;48.746;9.236;2022-11-20T16:38:36;5.40;99.90
5930;DHT22;2990;48.746;9.236;2022-11-20T16:41:02;5.50;99.90
5930;DHT22;2990;48.746;9.236;2022-11-20T16:43:28;5.50;99.90
5930;DHT22;2990;48.746;9.236;2022-11-20T16:45:54;5.50;99.90
5930;DHT22;2990;48.746;9.236;2022-11-20T16:48:19;5.60;99.90
5930;DHT22;2990;48.746;9.236;2022-11-20T16:50:51;5.50;99.90
5930;DHT22;2990;48.746;9.236;2022-11-20T16:53:21;5.50;99.90
5930;DHT22;2990;48.746;9.236;2022-11-20T16:55:47;5.40;99.90
5930;DHT22;2990;48.746;9.236;2022-11-20T16:58:14;5.60;99.90
5930;DHT22;2990;48.746;9.236;2022-11-20T17:00:40;5.60;99.90
5930;DHT22;2990;48.746;9.236;2022-11-20T17:03:06;5.60;99.90
5930;DHT22;2990;48.746;9.236;2022-11-20T17:05:32;5.50;99.90
5930;DHT22;2990;48.746;9.236;2022-11-20T17:07:59;5.50;99.90
5930;DHT22;2990;48.746;9.236;2022-11-20T17:10:25;5.50;99.90
5930;DHT22;2990;48.746;9.236;2022-11-20T17:12:50;5.50;99.90
5930;DHT22;2990;48.746;9.236;2022-11-20T17:15:16;5.50;99.90
5930;DHT22;2990;48.746;9.236;2022-11-20T17:17:42;5.40;99.90
5930;DHT22;2990;48.746;9.236;2022-11-20T17:20:09;5.40;99.90
5930;DHT22;2990;48.746;9.236;2022-11-20T17:22:34;5.40;1.00
5930;DHT22;2990;48.746;9.236;2022-11-20T17:25:00;5.40;1.00
5930;DHT22;2990;48.746;9.236;2022-11-20T17:27:25;5.40;1.00
5930;DHT22;2990;48.746;9.236;2022-11-20T17:29:51;5.40;1.00
5930;DHT22;2990;48.746;9.236;2022-11-20T17:32:19;5.40;1.00
5930;DHT22;2990;48.746;9.236;2022-11-20T17:34:45;5.30;1.00
5930;DHT22;2990;48.746;9.236;2022-11-20T17:37:10;5.30;1.00
5930;DHT22;2990;48.746;9.236;2022-11-20T17:39:36;5.30;1.00
5930;DHT22;2990;48.746;9.236;2022-11-20T17:42:01;5.30;99.90
5930;DHT22;2990;48.746;9.236;2022-11-20T17:44:45;5.40;99.90
5930;DHT22;2990;48.746;9.236;2022-11-20T17:47:11;5.40;99.90
5930;DHT22;2990;48.746;9.236;2022-11-20T17:49:37;5.40;1.00
5930;DHT22;2990;48.746;9.236;2022-11-20T17:52:03;5.50;1.00
5930;DHT22;2990;48.746;9.236;2022-11-20T17:54:29;5.50;78.80
5930;DHT22;2990;48.746;9.236;2022-11-20T17:56:54;5.50;1.00
5930;DHT22;2990;48.746;9.236;2022-11-20T17:59:38;5.50;1.00
5930;DHT22;2990;48.746;9.236;2022-11-20T18:02:04;5.50;99.90
5930;DHT22;2990;48.746;9.236;2022-11-20T18:04:30;5.30;99.90
5930;DHT22;2990;48.746;9.236;2022-11-20T18:06:55;5.40;1.00
5930;DHT22;2990;48.746;9.236;2022-11-20T18:09:21;5.50;99.90
5930;DHT22;2990;48.746;9.236;2022-11-20T18:11:47;5.50;99.90
5930;DHT22;2990;48.746;9.236;2022-11-20T18:14:15;5.50;1.00
5930;DHT22;2990;48.746;9.236;2022-11-20T18:17:11;5.60;99.90
5930;DHT22;2990;48.746;9.236;2022-11-20T18:19:42;5.60;1.00
5930;DHT22;2990;48.746;9.236;2022-11-20T18:22:09;5.60;1.00
5930;DHT22;2990;48.746;9.236;2022-11-20T18:24:35;5.60;1.00
5930;DHT22;2990;48.746;9.236;2022-11-20T18:27:02;5.60;99.90
5930;DHT22;2990;48.746;9.236;2022-11-20T18:29:29;5.60;1.00
5930;DHT22;2990;48.746;9.236;2022-11-20T18:31:56;5.60;1.00
5930;DHT22;2990;48.746;9.236;2022-11-20T18:34:22;5.60;99.90
5930;DHT22;2990;48.746;9.236;2022-11-20T18:36:47;5.60;1.00
5930;DHT22;2990;48.746;9.236;2022-11-20T18:39:14;5.50;1.00
5930;DHT22;2990;48.746;9.236;2022-11-20T18:41:40;5.50;99.90
5930;DHT22;2990;48.746;9.236;2022-11-20T18:44:27;5.50;1.00
5930;DHT22;2990;48.746;9.236;2022-11-20T18:47:21;5.50;1.00
5930;DHT22;2990;48.746;9.236;2022-11-20T18:49:48;5.40;1.00
5930;DHT22;2990;48.746;9.236;2022-11-20T18:52:24;5.40;1.00
5930;DHT22;2990;48.746;9.236;2022-11-20T18:54:51;5.40;99.90
5930;DHT22;2990;48.746;9.236;2022-11-20T18:57:19;5.30;1.00
5930;DHT22;2990;48.746;9.236;2022-11-20T18:59:45;5.20;99.90
5930;DHT22;2990;48.746;9.236;2022-11-20T19:02:13;5.20;99.90
5930;DHT22;2990;48.746;9.236;2022-11-20T19:04:39;5.20;99.90
5930;DHT22;2990;48.746;9.236;2022-11-20T19:07:04;5.20;99.90
5930;DHT22;2990;48.746;9.236;2022-11-20T19:09:30;5.20;99.90
5930;DHT22;2990;48.746;9.236;2022-11-20T19:11:56;5.10;99.90
5930;DHT22;2990;48.746;9.236;2022-11-20T19:14:21;5.10;1.00
5930;DHT22;2990;48.746;9.236;2022-11-20T19:16:47;5.00;99.90
5930;DHT22;2990;48.746;9.236;2022-11-20T19:19:13;5.00;1.00
5930;DHT22;2990;48.746;9.236;2022-11-20T19:21:39;4.90;1.00
5930;DHT22;2990;48.746;9.236;2022-11-20T19:24:05;4.80;1.00
5930;DHT22;2990;48.746;9.236;2022-11-20T19:26:34;4.80;1.00
5930;DHT22;2990;48.746;9.236;2022-11-20T19:29:00;4.80;1.00
5930;DHT22;2990;48.746;9.236;2022-11-20T19:31:26;4.70;1.00
5930;DHT22;2990;48.746;9.236;2022-11-20T19:33:53;4.80;1.00
5930;DHT22;2990;48.746;9.236;2022-11-20T19:36:24;4.70;1.00
5930;DHT22;2990;48.746;9.236;2022-11-20T19:38:51;4.70;1.00
5930;DHT22;2990;48.746;9.236;2022-11-20T19:41:20;4.70;1.00
5930;DHT22;2990;48.746;9.236;2022-11-20T19:43:46;4.60;1.00
5930;DHT22;2990;48.746;9.236;2022-11-20T19:46:17;4.70;1.00
5930;DHT22;2990;48.746;9.236;2022-11-20T19:48:44;4.60;1.00
5930;DHT22;2990;48.746;9.236;2022-11-20T19:51:19;4.60;99.90
5930;DHT22;2990;48.746;9.236;2022-11-20T19:53:45;4.70;99.90
5930;DHT22;2990;48.746;9.236;2022-11-20T19:56:11;4.60;1.00
5930;DHT22;2990;48.746;9.236;2022-11-20T19:58:37;4.60;99.90
5930;DHT22;2990;48.746;9.236;2022-11-20T20:01:12;4.70;99.90
5930;DHT22;2990;48.746;9.236;2022-11-20T20:03:38;4.70;99.90
5930;DHT22;2990;48.746;9.236;2022-11-20T20:06:07;4.70;1.00
5930;DHT22;2990;48.746;9.236;2022-11-20T20:08:33;4.70;99.90
5930;DHT22;2990;48.746;9.236;2022-11-20T20:10:59;4.70;1.00
5930;DHT22;2990;48.746;9.236;2022-11-20T20:13:25;4.70;99.90
5930;DHT22;2990;48.746;9.236;2022-11-20T20:15:51;4.70;99.90
5930;DHT22;2990;48.746;9.236;2022-11-20T20:18:17;4.60;99.90
5930;DHT22;2990;48.746;9.236;2022-11-20T20:20:43;4.60;99.90
5930;DHT22;2990;48.746;9.236;2022-11-20T20:23:08;4.60;99.90
5930;DHT22;2990;48.746;9.236;2022-11-20T20:25:37;4.60;99.90
5930;DHT22;2990;48.746;9.236;2022-11-20T20:28:03;4.60;99.90
5930;DHT22;2990;48.746;9.236;2022-11-20T20:30:29;4.50;99.90
5930;DHT22;2990;48.746;9.236;2022-11-20T20:32:54;4.60;99.90
5930;DHT22;2990;48.746;9.236;2022-11-20T20:35:20;4.50;99.90
5930;DHT22;2990;48.746;9.236;2022-11-20T20:37:46;4.50;99.90
5930;DHT22;2990;48.746;9.236;2022-11-20T20:40:12;4.60;99.90
5930;DHT22;2990;48.746;9.236;2022-11-20T20:42:37;4.50;1.00
5930;DHT22;2990;48.746;9.236;2022-11-20T20:45:03;4.50;1.00
5930;DHT22;2990;48.746;9.236;2022-11-20T20:47:36;4.50;1.00
5930;DHT22;2990;48.746;9.236;2022-11-20T20:50:07;4.40;1.00
5930;DHT22;2990;48.746;9.236;2022-11-20T20:52:34;4.40;1.00
5930;DHT22;2990;48.746;9.236;2022-11-20T20:54:59;4.30;1.00
5930;DHT22;2990;48.746;9.236;2022-11-20T20:57:26;4.30;1.00
5930;DHT22;2990;48.746;9.236;2022-11-20T20:59:53;4.30;1.00
5930;DHT22;2990;48.746;9.236;2022-11-20T21:02:23;4.40;1.00
5930;DHT22;2990;48.746;9.236;2022-11-20T21:04:50;4.30;1.00
5930;DHT22;2990;48.746;9.236;2022-11-20T21:07:16;4.30;1.00
5930;DHT22;2990;48.746;9.236;2022-11-20T21:09:42;4.30;1.00
5930;DHT22;2990;48.746;9.236;2022-11-20T21:12:07;4.30;1.00
5930;DHT22;2990;48.746;9.236;2022-11-20T21:14:33;4.30;1.00
5930;DHT22;2990;48.746;9.236;2022-11-20T21:16:59;4.30;1.00
5930;DHT22;2990;48.746;9.236;2022-11-20T21:19:24;4.30;1.00
5930;DHT22;2990;48.746;9.236;2022-11-20T21:21:50;4.30;1.00
5930;DHT22;2990;48.746;9.236;2022-11-20T21:24:32;4.20;1.00
5930;DHT22;2990;48.746;9.236;2022-11-20T21:26:59;4.20;1.00
5930;DHT22;2990;48.746;9.236;2022-11-20T21:29:26;4.20;1.00
5930;DHT22;2990;48.746;9.236;2022-11-20T21:31:55;4.20;1.00
5930;DHT22;2990;48.746;9.236;2022-11-20T21:34:22;4.30;1.00
5930;DHT22;2990;48.746;9.236;2022-11-20T21:36:48;4.30;1.00
5930;DHT22;2990;48.746;9.236;2022-11-20T21:39:14;4.30;1.00
5930;DHT22;2990;48.746;9.236;2022-11-20T21:41:40;4.20;1.00
5930;DHT22;2990;48.746;9.236;2022-11-20T21:44:10;4.20;1.00
5930;DHT22;2990;48.746;9.236;2022-11-20T21:46:42;4.20;1.00
5930;DHT22;2990;48.746;9.236;2022-11-20T21:49:08;4.10;1.00
5930;DHT22;2990;48.746;9.236;2022-11-20T21:51:34;4.10;1.00
5930;DHT22;2990;48.746;9.236;2022-11-20T21:54:00;4.10;1.00
5930;DHT22;2990;48.746;9.236;2022-11-20T21:56:26;4.00;1.00
5930;DHT22;2990;48.746;9.236;2022-11-20T21:58:53;4.00;1.00
5930;DHT22;2990;48.746;9.236;2022-11-20T22:01:24;4.00;1.00
5930;DHT22;2990;48.746;9.236;2022-11-20T22:03:52;4.10;1.00
5930;DHT22;2990;48.746;9.236;2022-11-20T22:06:19;4.10;1.00
5930;DHT22;2990;48.746;9.236;2022-11-20T22:08:45;4.10;1.00
5930;DHT22;2990;48.746;9.236;2022-11-20T22:11:14;4.10;1.00
5930;DHT22;2990;48.746;9.236;2022-11-20T22:13:40;4.20;1.00
5930;DHT22;2990;48.746;9.236;2022-11-20T22:16:24;4.20;1.00
5930;DHT22;2990;48.746;9.236;2022-11-20T22:18:52;4.20;1.00
5930;DHT22;2990;48.746;9.236;2022-11-20T22:21:22;4.20;1.00
5930;DHT22;2990;48.746;9.236;2022-11-20T22:23:49;4.20;1.00
5930;DHT22;2990;48.746;9.236;2022-11-20T22:26:17;4.20;1.00
5930;DHT22;2990;48.746;9.236;2022-11-20T22:28:46;4.30;1.00
5930;DHT22;2990;48.746;9.236;2022-11-20T22:31:13;4.20;1.00
5930;DHT22;2990;48.746;9.236;2022-11-20T22:33:39;4.30;1.00
5930;DHT22;2990;48.746;9.236;2022-11-20T22:36:12;4.30;1.00
5930;DHT22;2990;48.746;9.236;2022-11-20T22:38:38;4.30;1.00
5930;DHT22;2990;48.746;9.236;2022-11-20T22:41:07;4.30;1.00
5930;DHT22;2990;48.746;9.236;2022-11-20T22:43:33;4.30;1.00
5930;DHT22;2990;48.746;9.236;2022-11-20T22:46:05;4.20;1.00
5930;DHT22;2990;48.746;9.236;2022-11-20T22:48:32;4.20;1.00
5930;DHT22;2990;48.746;9.236;2022-11-20T22:51:07;4.20;1.00
5930;DHT22;2990;48.746;9.236;2022-11-20T22:53:33;4.20;1.00
5930;DHT22;2990;48.746;9.236;2022-11-20T22:56:00;4.20;1.00
5930;DHT22;2990;48.746;9.236;2022-11-20T22:58:30;4.20;1.00
5930;DHT22;2990;48.746;9.236;2022-11-20T23:01:07;4.10;1.00
5930;DHT22;2990;48.746;9.236;2022-11-20T23:03:33;4.20;1.00
5930;DHT22;2990;48.746;9.236;2022-11-20T23:05:59;4.10;1.00
5930;DHT22;2990;48.746;9.236;2022-11-20T23:08:26;4.00;6.60
5930;DHT22;2990;48.746;9.236;2022-11-20T23:10:57;4.10;13.20
5930;DHT22;2990;48.746;9.236;2022-11-20T23:13:23;4.00;14.90
5930;DHT22;2990;48.746;9.236;2022-11-20T23:15:48;4.10;16.00
5930;DHT22;2990;48.746;9.236;2022-11-20T23:18:14;4.00;10.90
5930;DHT22;2990;48.746;9.236;2022-11-20T23:20:39;4.00;15.30
5930;DHT22;2990;48.746;9.236;2022-11-20T23:23:05;4.10;23.80
5930;DHT22;2990;48.746;9.236;2022-11-20T23:25:30;4.10;19.60
5930;DHT22;2990;48.746;9.236;2022-11-20T23:27:56;4.10;12.50
5930;DHT22;2990;48.746;9.236;2022-11-20T23:30:21;4.20;1.00
5930;DHT22;2990;48.746;9.236;2022-11-20T23:32:47;4.20;1.00
5930;DHT22;2990;48.746;9.236;2022-11-20T23:35:12;4.10;1.00
5930;DHT22;2990;48.746;9.236;2022-11-20T23:37:38;4.20;1.00
5930;DHT22;2990;48.746;9.236;2022-11-20T23:40:04;4.10;1.00
5930;DHT22;2990;48.746;9.236;2022-11-20T23:42:30;4.10;1.00
5930;DHT22;2990;48.746;9.236;2022-11-20T23:44:55;4.10;1.00
5930;DHT22;2990;48.746;9.236;2022-11-20T23:47:21;4.10;1.00
5930;DHT22;2990;48.746;9.236;2022-11-20T23:49:46;4.20;1.00
5930;DHT22;2990;48.746;9.236;2022-11-20T23:52:12;4.20;1.00
5930;DHT22;2990;48.746;9.236;2022-11-20T23:54:37;4.20;1.00
5930;DHT22;2990;48.746;9.236;2022-11-20T23:57:03;4.20;1.00
5930;DHT22;2990;48.746;9.236;2022-11-20T23:59:28;4.20;8.00
